createdAt,value
2017-12-11T00:00:09.000Z,34.933
2017-12-11T00:10:09.000Z,35.06
2017-12-11T00:20:09.000Z,35.015
2017-12-11T00:30:09.000Z,35.153
2017-12-11T00:40:09.000Z,35.108
2017-12-11T00:50:09.000Z,35.094
2017-12-11T01:00:09.000Z,35.382
2017-12-11T01:10:09.000Z,35.294
2017-12-11T01:20:09.000Z,35.443
2017-12-11T01:30:09.000Z,35.41
2017-12-11T01:40:09.000Z,35.375
2017-12-11T01:50:09.000Z,35.405
2017-12-11T02:00:09.000Z,35.522
2017-12-11T02:10:09.000Z,35.433
2017-12-11T02:20:09.000Z,35.56
2017-12-11T02:30:09.000Z,35.558
2017-12-11T02:40:09.000Z,35.546
2017-12-11T02:50:09.000Z,35.5
2017-12-11T03:00:09.000Z,35.435
2017-12-11T03:10:09.000Z,35.39
2017-12-11T03:20:09.000Z,35.529
2017-12-11T03:30:09.000Z,35.461
2017-12-11T03:40:09.000Z,35.374
2017-12-11T03:50:09.000Z,35.491
2017-12-11T04:00:09.000Z,35.392
2017-12-11T04:10:09.000Z,35.508
2017-12-11T04:20:09.000Z,35.334
2017-12-11T04:30:09.000Z,35.397
2017-12-11T04:40:09.000Z,35.395
2017-12-11T04:50:09.000Z,35.437
2017-12-11T05:00:09.000Z,35.403
2017-12-11T05:10:09.000Z,35.23
2017-12-11T05:20:09.000Z,35.143
2017-12-11T05:30:09.000Z,35.174
2017-12-11T05:40:10.000Z,34.992
2017-12-11T05:50:09.000Z,35.044
2017-12-11T06:00:10.000Z,34.968
2017-12-11T06:10:09.000Z,35
2017-12-11T06:20:10.000Z,34.828
2017-12-11T06:30:09.000Z,34.87
2017-12-11T06:40:10.000Z,34.708
2017-12-11T06:50:10.000Z,34.686
2017-12-11T07:00:10.000Z,34.623
2017-12-11T07:10:10.000Z,34.817
2017-12-11T07:20:10.000Z,34.958
2017-12-11T07:30:10.000Z,34.841
2017-12-11T07:40:10.000Z,34.745
2017-12-11T07:50:10.000Z,34.636
2017-12-11T08:00:10.000Z,34.548
2017-12-11T08:10:10.000Z,34.493
2017-12-11T08:20:10.000Z,34.471
2017-12-11T08:30:10.000Z,33.697
2017-12-11T08:40:10.000Z,32.859
2017-12-11T08:50:10.000Z,32.914
2017-12-11T09:00:10.000Z,34.465
2017-12-11T09:10:10.000Z,35.381
2017-12-11T09:20:11.000Z,35.305
2017-12-11T09:30:10.000Z,35.38
2017-12-11T09:40:10.000Z,36.057
2017-12-11T09:50:10.000Z,36.355
2017-12-11T10:10:10.000Z,35.471
2017-12-11T10:20:10.000Z,35.25
2017-12-11T10:30:10.000Z,35.106
2017-12-11T10:40:10.000Z,35.062
2017-12-11T10:50:10.000Z,35.681
2017-12-11T11:00:10.000Z,35.609
2017-12-11T11:10:10.000Z,35.73
2017-12-11T11:20:10.000Z,35.656
2017-12-11T11:30:10.000Z,35.632
2017-12-11T11:40:10.000Z,35.536
2017-12-11T11:50:10.000Z,35.701
2017-12-11T12:00:10.000Z,35.353
2017-12-11T12:10:10.000Z,35.398
2017-12-11T12:20:11.000Z,35.207
2017-12-11T12:30:10.000Z,35.241
2017-12-11T12:40:10.000Z,35.132
2017-12-11T12:50:10.000Z,35.002
2017-12-11T13:00:10.000Z,34.952
2017-12-11T13:10:10.000Z,35.237
2017-12-11T13:20:10.000Z,34.907
2017-12-11T13:30:10.000Z,34.996
2017-12-11T13:40:10.000Z,34.747
2017-12-11T13:50:10.000Z,34.834
2017-12-11T14:00:10.000Z,34.683
2017-12-11T14:10:10.000Z,34.688
2017-12-11T14:20:10.000Z,34.784
2017-12-11T14:30:10.000Z,34.794
2017-12-11T14:40:10.000Z,34.829
2017-12-11T14:50:10.000Z,34.613
2017-12-11T15:00:11.000Z,34.679
2017-12-11T15:10:11.000Z,34.493
2017-12-11T15:20:11.000Z,34.365
2017-12-11T15:30:11.000Z,34.464
2017-12-11T15:40:11.000Z,34.369
2017-12-11T15:50:11.000Z,34.478
2017-12-11T16:00:12.000Z,34.58
2017-12-11T16:10:11.000Z,34.493
2017-12-11T16:20:11.000Z,34.352
2017-12-11T16:30:11.000Z,34.321
2017-12-11T16:40:11.000Z,34.366
2017-12-11T16:50:11.000Z,34.345
2017-12-11T17:00:11.000Z,34.323
2017-12-11T17:10:11.000Z,34.124
2017-12-11T17:20:11.000Z,34.202
2017-12-11T17:30:11.000Z,34.325
2017-12-11T17:40:11.000Z,34.416
2017-12-11T17:50:11.000Z,34.45
2017-12-11T18:00:14.000Z,34.398
2017-12-11T18:10:11.000Z,34.431
2017-12-11T18:20:11.000Z,34.455
2017-12-11T18:30:11.000Z,34.445
2017-12-11T18:40:11.000Z,34.283
2017-12-11T18:50:11.000Z,34.309
2017-12-11T19:00:11.000Z,34.084
2017-12-11T19:10:12.000Z,33.384
2017-12-11T19:20:11.000Z,33.09
2017-12-11T19:30:11.000Z,33.421
2017-12-11T19:40:11.000Z,33.521
2017-12-11T19:50:11.000Z,33.203
2017-12-11T20:00:11.000Z,32.968
2017-12-11T20:10:11.000Z,33.035
2017-12-11T20:20:11.000Z,33.091
2017-12-11T20:30:11.000Z,32.951
2017-12-11T20:40:14.000Z,32.699
2017-12-11T20:50:11.000Z,32.773
2017-12-11T21:00:11.000Z,32.861
2017-12-11T21:10:11.000Z,32.658
2017-12-11T21:20:12.000Z,32.691
2017-12-11T21:30:11.000Z,32.61
2017-12-11T21:40:11.000Z,32.804
2017-12-11T21:50:12.000Z,32.775
2017-12-11T22:00:11.000Z,32.771
2017-12-11T22:10:11.000Z,32.698
2017-12-11T22:20:11.000Z,32.754
2017-12-11T22:30:11.000Z,28.302
2017-12-11T22:40:11.000Z,32.941
2017-12-11T22:50:11.000Z,32.973
2017-12-11T23:00:11.000Z,33.065
2017-12-11T23:10:11.000Z,33.405
2017-12-11T23:20:12.000Z,33.557
2017-12-11T23:30:12.000Z,33.656
2017-12-11T23:40:12.000Z,34.196
2017-12-11T23:50:12.000Z,34.077
